createdAt,value
2023-05-19T00:01:53.318Z,10.88
2023-05-19T00:04:20.480Z,12.50
2023-05-19T00:06:51.044Z,10.00
2023-05-19T00:09:18.493Z,12.25
2023-05-19T00:11:45.587Z,12.35
2023-05-19T00:14:13.050Z,12.48
2023-05-19T00:16:40.282Z,14.60
2023-05-19T00:19:07.227Z,10.95
2023-05-19T00:21:34.197Z,12.43
2023-05-19T00:24:01.054Z,11.80
2023-05-19T00:26:28.008Z,15.88
2023-05-19T00:28:54.924Z,16.27
2023-05-19T00:31:21.975Z,17.08
2023-05-19T00:33:48.879Z,19.55
2023-05-19T00:36:15.856Z,18.92
2023-05-19T00:38:42.767Z,22.15
2023-05-19T00:41:09.681Z,21.93
2023-05-19T00:43:36.748Z,20.23
2023-05-19T00:46:04.117Z,16.13
2023-05-19T00:48:31.227Z,15.43
2023-05-19T00:50:59.844Z,16.20
2023-05-19T00:53:26.687Z,16.07
2023-05-19T00:55:53.701Z,18.83
2023-05-19T00:58:20.635Z,17.75
2023-05-19T01:00:47.584Z,17.75
2023-05-19T01:03:14.484Z,19.45
2023-05-19T01:05:42.717Z,16.73
2023-05-19T01:08:09.604Z,17.58
2023-05-19T01:10:36.672Z,17.23
2023-05-19T01:13:05.595Z,12.85
2023-05-19T01:15:54.336Z,12.00
2023-05-19T01:18:37.014Z,15.47
2023-05-19T01:21:27.133Z,14.13
2023-05-19T01:24:10.687Z,17.27
2023-05-19T01:27:05.927Z,15.75
2023-05-19T01:29:51.042Z,14.23
2023-05-19T01:32:21.206Z,16.13
2023-05-19T01:34:51.052Z,16.02
2023-05-19T01:37:20.597Z,16.15
2023-05-19T01:39:48.695Z,14.45
2023-05-19T01:42:16.423Z,15.48
2023-05-19T01:44:44.013Z,19.30
2023-05-19T01:47:11.021Z,17.80
2023-05-19T01:49:37.949Z,18.65
2023-05-19T01:52:05.128Z,18.95
2023-05-19T01:54:32.028Z,22.13
2023-05-19T01:57:23.632Z,22.37
2023-05-19T02:00:10.261Z,22.63
2023-05-19T02:02:56.078Z,19.35
2023-05-19T02:05:42.566Z,19.63
2023-05-19T02:08:30.890Z,14.63
2023-05-19T02:11:14.047Z,14.50
2023-05-19T02:13:44.379Z,14.80
2023-05-19T02:16:13.717Z,15.05
2023-05-19T02:18:40.967Z,13.02
2023-05-19T02:21:07.888Z,15.30
2023-05-19T02:23:34.698Z,14.20
2023-05-19T02:26:01.572Z,13.43
2023-05-19T02:28:28.531Z,10.52
2023-05-19T02:30:55.733Z,12.48
2023-05-19T02:33:22.537Z,14.00
2023-05-19T02:35:49.430Z,14.70
2023-05-19T02:38:16.296Z,12.57
2023-05-19T02:40:43.109Z,13.77
2023-05-19T02:43:10.095Z,13.75
2023-05-19T02:45:36.921Z,11.07
2023-05-19T02:48:03.994Z,14.13
2023-05-19T02:50:31.139Z,11.80
2023-05-19T02:52:58.204Z,10.52
2023-05-19T02:55:25.041Z,13.43
2023-05-19T02:57:51.990Z,12.55
2023-05-19T03:00:18.990Z,15.63
2023-05-19T03:02:46.015Z,15.77
2023-05-19T03:05:12.993Z,14.77
2023-05-19T03:07:39.889Z,14.02
2023-05-19T03:10:07.560Z,10.45
2023-05-19T03:12:34.607Z,10.73
2023-05-19T03:15:01.531Z,10.35
2023-05-19T03:17:28.492Z,9.90
2023-05-19T03:19:55.480Z,9.73
2023-05-19T03:22:22.341Z,9.13
2023-05-19T03:24:49.286Z,9.20
2023-05-19T03:27:16.296Z,9.25
2023-05-19T03:29:43.069Z,9.45
2023-05-19T03:32:09.917Z,10.02
2023-05-19T03:34:36.832Z,10.18
2023-05-19T03:37:03.742Z,11.70
2023-05-19T03:39:31.230Z,11.05
2023-05-19T03:41:58.241Z,11.40
2023-05-19T03:44:25.039Z,12.23
2023-05-19T03:46:51.831Z,14.38
2023-05-19T03:49:18.830Z,16.77
2023-05-19T03:51:45.714Z,13.80
2023-05-19T03:54:12.639Z,15.63
2023-05-19T03:56:40.393Z,16.00
2023-05-19T03:59:07.213Z,17.17
2023-05-19T04:01:34.266Z,15.47
2023-05-19T04:04:01.261Z,14.95
2023-05-19T04:06:28.202Z,15.30
2023-05-19T04:08:55.117Z,13.98
2023-05-19T04:11:22.075Z,13.32
2023-05-19T04:13:49.013Z,13.33
2023-05-19T04:16:16.122Z,11.85
2023-05-19T04:18:43.155Z,11.43
2023-05-19T04:21:10.166Z,9.23
2023-05-19T04:23:37.153Z,11.73
2023-05-19T04:26:04.363Z,11.87
2023-05-19T04:28:31.292Z,11.13
2023-05-19T04:30:58.167Z,10.45
2023-05-19T04:33:25.108Z,9.75
2023-05-19T04:35:52.043Z,9.90
2023-05-19T04:38:19.083Z,9.83
2023-05-19T04:40:46.001Z,10.50
2023-05-19T04:43:12.859Z,12.80
2023-05-19T04:45:39.748Z,11.77
2023-05-19T04:48:09.662Z,10.88
2023-05-19T04:50:36.574Z,14.80
2023-05-19T04:53:03.393Z,11.07
2023-05-19T04:55:30.436Z,11.15
2023-05-19T04:58:00.412Z,11.30
2023-05-19T05:00:27.343Z,13.60
2023-05-19T05:02:54.428Z,13.63
2023-05-19T05:05:21.308Z,11.20
2023-05-19T05:07:48.171Z,13.82
2023-05-19T05:10:15.496Z,13.23
2023-05-19T05:12:42.736Z,11.30
2023-05-19T05:15:10.345Z,11.17
2023-05-19T05:17:37.596Z,14.38
2023-05-19T05:20:05.031Z,13.07
2023-05-19T05:22:32.258Z,17.58
2023-05-19T05:24:59.635Z,14.43
2023-05-19T05:27:26.677Z,13.60
2023-05-19T05:29:56.030Z,14.15
2023-05-19T05:32:23.978Z,12.50
2023-05-19T05:34:51.166Z,10.02
2023-05-19T05:37:17.962Z,14.70
2023-05-19T05:39:44.921Z,11.17
2023-05-19T05:42:11.839Z,9.88
2023-05-19T05:44:38.678Z,11.10
2023-05-19T05:47:06.012Z,10.68
2023-05-19T05:49:33.134Z,9.50
2023-05-19T05:52:06.360Z,8.37
2023-05-19T05:54:34.414Z,8.55
2023-05-19T05:57:01.716Z,9.32
2023-05-19T05:59:30.640Z,9.32
2023-05-19T06:01:57.613Z,9.95
2023-05-19T06:04:24.494Z,12.07
2023-05-19T06:06:51.448Z,11.85
2023-05-19T06:09:18.683Z,10.38
2023-05-19T06:11:45.594Z,10.45
2023-05-19T06:14:12.448Z,11.00
2023-05-19T06:16:39.623Z,13.53
2023-05-19T06:19:06.685Z,10.90
2023-05-19T06:21:33.553Z,13.90
2023-05-19T06:24:00.566Z,12.60
2023-05-19T06:26:27.377Z,12.02
2023-05-19T06:28:54.396Z,14.57
2023-05-19T06:31:21.515Z,12.57
2023-05-19T06:33:50.743Z,13.30
2023-05-19T06:36:17.927Z,12.35
2023-05-19T06:38:44.830Z,15.85
2023-05-19T06:41:11.821Z,12.17
2023-05-19T06:43:38.799Z,12.52
2023-05-19T06:46:05.774Z,9.48
2023-05-19T06:48:32.618Z,10.52
2023-05-19T06:50:59.504Z,10.68
2023-05-19T06:53:26.486Z,9.40
2023-05-19T06:55:59.437Z,10.20
2023-05-19T06:58:27.434Z,9.57
2023-05-19T07:00:57.149Z,13.13
2023-05-19T07:03:24.170Z,10.65
2023-05-19T07:05:51.255Z,9.03
2023-05-19T07:08:18.062Z,12.38
2023-05-19T07:10:44.975Z,9.57
2023-05-19T07:13:11.896Z,9.80
2023-05-19T07:15:38.799Z,10.65
2023-05-19T07:18:05.924Z,13.03
2023-05-19T07:20:32.975Z,12.68
2023-05-19T07:22:59.961Z,12.10
2023-05-19T07:25:26.815Z,10.43
2023-05-19T07:27:54.005Z,11.07
2023-05-19T07:30:23.909Z,13.37
2023-05-19T07:32:50.852Z,14.00
2023-05-19T07:35:17.857Z,14.10
2023-05-19T07:37:44.782Z,11.63
2023-05-19T07:40:11.967Z,11.45
2023-05-19T07:42:39.090Z,10.10
2023-05-19T07:45:09.306Z,10.27
2023-05-19T07:47:36.237Z,10.75
2023-05-19T07:50:03.838Z,10.05
2023-05-19T07:52:30.805Z,12.48
2023-05-19T07:54:58.713Z,12.23
2023-05-19T07:57:25.898Z,10.38
2023-05-19T07:59:52.833Z,10.80
2023-05-19T08:02:19.739Z,9.30
2023-05-19T08:04:46.777Z,9.25
2023-05-19T08:07:13.755Z,11.33
2023-05-19T08:09:40.747Z,9.85
2023-05-19T08:12:07.824Z,9.30
2023-05-19T08:14:34.697Z,11.68
2023-05-19T08:17:01.557Z,7.60
2023-05-19T08:19:28.753Z,9.40
2023-05-19T08:21:55.610Z,12.32
2023-05-19T08:24:22.639Z,14.27
2023-05-19T08:26:49.518Z,11.50
2023-05-19T08:29:16.884Z,13.55
2023-05-19T08:31:44.111Z,10.20
2023-05-19T08:34:11.239Z,11.57
2023-05-19T08:36:38.097Z,12.18
2023-05-19T08:39:05.009Z,11.32
2023-05-19T08:41:32.396Z,9.75
2023-05-19T08:43:59.755Z,11.87
2023-05-19T08:46:27.202Z,14.93
2023-05-19T08:49:05.068Z,11.60
2023-05-19T08:51:39.495Z,11.85
2023-05-19T08:54:16.466Z,10.60
2023-05-19T08:56:44.730Z,9.57
2023-05-19T08:59:14.111Z,9.95
2023-05-19T09:01:46.224Z,10.52
2023-05-19T09:04:13.737Z,11.70
2023-05-19T09:06:41.265Z,11.55
2023-05-19T09:09:08.809Z,10.33
2023-05-19T09:11:35.735Z,9.68
2023-05-19T09:14:02.654Z,9.48
2023-05-19T09:16:30.440Z,10.00
2023-05-19T09:19:00.863Z,12.98
2023-05-19T09:21:29.402Z,12.87
2023-05-19T09:23:57.043Z,11.05
2023-05-19T09:26:24.075Z,11.52
2023-05-19T09:28:51.253Z,13.60
2023-05-19T09:31:18.136Z,11.05
2023-05-19T09:33:46.000Z,10.53
2023-05-19T09:36:13.981Z,10.82
2023-05-19T09:38:41.222Z,11.98
2023-05-19T09:41:08.400Z,13.30
2023-05-19T09:43:35.850Z,13.05
2023-05-19T09:46:07.942Z,11.77
2023-05-19T09:48:35.863Z,12.27
2023-05-19T09:51:04.046Z,12.90
2023-05-19T09:53:31.431Z,11.82
2023-05-19T09:55:58.637Z,11.13
2023-05-19T09:58:26.746Z,10.43
2023-05-19T10:00:54.374Z,11.35
2023-05-19T10:03:26.353Z,8.35
2023-05-19T10:05:54.119Z,10.13
2023-05-19T10:08:22.478Z,10.85
2023-05-19T10:10:49.704Z,8.70
2023-05-19T10:13:17.405Z,8.90
2023-05-19T10:15:57.210Z,8.48
2023-05-19T10:18:26.462Z,7.75
2023-05-19T10:20:54.449Z,7.47
2023-05-19T10:23:21.400Z,7.00
2023-05-19T10:25:50.696Z,8.85
2023-05-19T10:28:20.111Z,10.13
2023-05-19T10:30:50.960Z,9.35
2023-05-19T10:33:21.900Z,7.90
2023-05-19T10:36:02.627Z,8.30
2023-05-19T10:38:56.925Z,8.32
2023-05-19T10:41:56.016Z,10.23
2023-05-19T10:44:49.742Z,6.70
2023-05-19T10:47:26.838Z,5.80
2023-05-19T10:49:54.591Z,5.77
2023-05-19T10:52:24.521Z,7.93
2023-05-19T10:54:52.108Z,7.47
2023-05-19T10:57:21.119Z,7.82
2023-05-19T10:59:48.387Z,7.70
2023-05-19T11:02:41.445Z,7.40
2023-05-19T11:05:13.638Z,8.80
2023-05-19T11:08:09.382Z,7.72
2023-05-19T11:10:36.406Z,8.02
2023-05-19T11:13:06.557Z,9.02
2023-05-19T11:15:36.641Z,7.97
2023-05-19T11:18:04.945Z,8.98
2023-05-19T11:20:31.985Z,7.00
2023-05-19T11:23:07.105Z,8.25
2023-05-19T11:25:52.033Z,7.40
2023-05-19T11:28:21.473Z,6.33
2023-05-19T11:30:49.288Z,7.57
2023-05-19T11:33:16.356Z,7.13
2023-05-19T11:35:45.976Z,6.90
2023-05-19T11:38:14.242Z,6.22
2023-05-19T11:40:42.703Z,7.73
2023-05-19T11:43:09.699Z,6.28
2023-05-19T11:45:36.964Z,7.03
2023-05-19T11:48:04.231Z,7.85
2023-05-19T11:50:32.385Z,7.70
2023-05-19T11:53:03.065Z,7.43
2023-05-19T11:55:30.591Z,7.40
2023-05-19T11:58:03.893Z,7.25
2023-05-19T12:00:36.700Z,8.02
2023-05-19T12:03:03.848Z,8.38
2023-05-19T12:05:31.996Z,6.60
2023-05-19T12:08:00.853Z,7.70
2023-05-19T12:10:29.731Z,7.18
2023-05-19T12:12:56.930Z,7.85
2023-05-19T12:15:25.207Z,10.02
2023-05-19T12:17:57.788Z,6.97
2023-05-19T12:20:26.240Z,6.90
2023-05-19T12:22:55.418Z,7.30
2023-05-19T12:25:23.454Z,6.35
2023-05-19T12:27:50.488Z,6.57
2023-05-19T12:30:17.537Z,8.23
2023-05-19T12:32:46.412Z,9.57
2023-05-19T12:35:14.758Z,10.00
2023-05-19T12:37:42.404Z,7.30
2023-05-19T12:40:10.275Z,9.18
2023-05-19T12:42:37.288Z,12.07
2023-05-19T12:45:04.810Z,10.85
2023-05-19T12:47:34.065Z,9.77
2023-05-19T12:50:01.912Z,7.80
2023-05-19T12:52:29.927Z,10.02
2023-05-19T12:55:01.680Z,9.23
2023-05-19T12:57:29.004Z,9.70
2023-05-19T13:00:01.076Z,9.98
2023-05-19T13:02:28.099Z,9.23
2023-05-19T13:04:55.030Z,9.68
2023-05-19T13:07:21.920Z,8.77
2023-05-19T13:09:51.873Z,14.25
2023-05-19T13:12:19.221Z,9.25
2023-05-19T13:14:46.134Z,10.73
2023-05-19T13:17:13.070Z,8.90
2023-05-19T13:19:40.004Z,9.63
2023-05-19T13:22:06.972Z,11.00
2023-05-19T13:24:33.966Z,10.65
2023-05-19T13:27:00.846Z,6.88
2023-05-19T13:29:27.738Z,8.07
2023-05-19T13:31:54.680Z,9.93
2023-05-19T13:34:21.558Z,6.15
2023-05-19T13:36:48.502Z,7.07
2023-05-19T13:39:15.514Z,7.40
2023-05-19T13:41:42.406Z,6.78
2023-05-19T13:44:09.276Z,5.90
2023-05-19T13:46:44.587Z,6.88
2023-05-19T13:49:13.392Z,5.28
2023-05-19T13:51:46.342Z,6.35
2023-05-19T13:54:13.320Z,8.52
2023-05-19T13:56:40.174Z,10.10
2023-05-19T13:59:07.129Z,8.68
2023-05-19T14:01:34.091Z,8.10
2023-05-19T14:04:01.353Z,7.90
2023-05-19T14:06:28.466Z,9.07
2023-05-19T14:08:55.322Z,8.13
2023-05-19T14:11:22.253Z,10.63
2023-05-19T14:13:51.202Z,9.27
2023-05-19T14:16:19.621Z,7.55
2023-05-19T14:18:46.471Z,7.97
2023-05-19T14:21:13.490Z,7.27
2023-05-19T14:23:40.360Z,10.48
2023-05-19T14:26:07.418Z,8.52
2023-05-19T14:28:37.139Z,10.48
2023-05-19T14:31:07.082Z,8.38
2023-05-19T14:33:36.902Z,8.17
2023-05-19T14:36:07.759Z,8.32
2023-05-19T14:38:34.760Z,8.75
2023-05-19T14:41:01.802Z,8.40
2023-05-19T14:43:28.953Z,9.05
2023-05-19T14:45:56.983Z,18.80
2023-05-19T14:48:23.949Z,8.60
2023-05-19T14:50:50.949Z,8.93
2023-05-19T14:53:20.586Z,9.05
2023-05-19T14:55:50.573Z,7.47
2023-05-19T14:58:28.325Z,10.90
2023-05-19T15:00:58.402Z,9.20
2023-05-19T15:03:25.456Z,6.60
2023-05-19T15:05:52.443Z,7.78
2023-05-19T15:08:19.390Z,7.55
2023-05-19T15:10:49.744Z,8.60
2023-05-19T15:13:21.309Z,8.93
2023-05-19T15:15:48.677Z,9.25
2023-05-19T15:18:15.590Z,8.35
2023-05-19T15:20:44.101Z,8.80
2023-05-19T15:23:11.110Z,8.30
2023-05-19T15:25:38.225Z,7.40
2023-05-19T15:28:05.069Z,7.03
2023-05-19T15:30:31.971Z,7.32
2023-05-19T15:32:58.813Z,7.57
2023-05-19T15:35:25.716Z,6.53
2023-05-19T15:37:52.784Z,6.53
2023-05-19T15:40:19.716Z,7.43
2023-05-19T15:42:46.685Z,6.20
2023-05-19T15:45:13.777Z,6.10
2023-05-19T15:47:40.733Z,5.80
2023-05-19T15:50:08.325Z,5.30
2023-05-19T15:52:35.304Z,5.63
2023-05-19T15:55:04.981Z,6.88
2023-05-19T15:57:33.593Z,6.10
2023-05-19T16:00:00.626Z,5.90
2023-05-19T16:02:27.773Z,6.72
2023-05-19T16:04:54.879Z,5.88
2023-05-19T16:07:21.869Z,7.00
2023-05-19T16:09:48.694Z,5.53
2023-05-19T16:12:17.880Z,5.93
2023-05-19T16:14:44.873Z,7.30
2023-05-19T16:17:12.108Z,7.15
2023-05-19T16:19:39.022Z,5.18
2023-05-19T16:22:06.260Z,8.00
2023-05-19T16:24:45.267Z,7.60
2023-05-19T16:27:12.711Z,4.82
2023-05-19T16:29:39.637Z,5.53
2023-05-19T16:32:07.580Z,4.70
2023-05-19T16:37:21.942Z,4.30
2023-05-19T16:39:51.335Z,4.72
2023-05-19T16:42:33.049Z,4.35
2023-05-19T16:45:05.006Z,4.35
2023-05-19T16:47:40.953Z,6.50
2023-05-19T16:53:02.458Z,4.43
2023-05-19T16:55:31.055Z,4.90
2023-05-19T16:57:58.202Z,4.20
2023-05-19T17:00:30.204Z,5.05
2023-05-19T17:02:57.404Z,5.67
2023-05-19T17:05:25.936Z,3.70
2023-05-19T17:07:55.099Z,3.63
2023-05-19T17:10:31.022Z,4.43
2023-05-19T17:12:58.201Z,4.80
2023-05-19T17:18:15.403Z,4.45
2023-05-19T17:20:42.619Z,4.40
2023-05-19T17:23:12.706Z,3.70
2023-05-19T17:26:11.288Z,4.43
2023-05-19T17:28:38.236Z,3.90
2023-05-19T17:31:25.509Z,4.00
2023-05-19T17:33:58.435Z,3.97
2023-05-19T17:36:25.289Z,3.97
2023-05-19T17:38:52.589Z,5.13
2023-05-19T17:41:19.818Z,4.03
2023-05-19T17:43:46.826Z,3.75
2023-05-19T17:46:13.847Z,4.25
2023-05-19T17:48:42.747Z,4.90
2023-05-19T17:51:12.301Z,3.67
2023-05-19T17:53:51.811Z,4.37
2023-05-19T17:56:25.586Z,4.05
2023-05-19T17:58:54.806Z,3.97
2023-05-19T18:01:22.332Z,7.82
2023-05-19T18:03:49.995Z,4.35
2023-05-19T18:06:18.427Z,3.47
2023-05-19T18:08:49.263Z,4.13
2023-05-19T18:11:22.872Z,5.70
2023-05-19T18:13:50.053Z,4.72
2023-05-19T18:16:20.367Z,5.10
2023-05-19T18:18:50.879Z,4.63
2023-05-19T18:21:18.194Z,4.10
2023-05-19T18:23:49.187Z,4.10
2023-05-19T18:26:16.709Z,3.88
2023-05-19T18:28:52.582Z,3.97
2023-05-19T18:31:19.951Z,4.47
2023-05-19T18:33:53.213Z,4.68
2023-05-19T18:36:20.516Z,4.00
2023-05-19T18:38:49.248Z,4.25
2023-05-19T18:41:25.331Z,5.25
2023-05-19T18:43:52.314Z,7.53
2023-05-19T18:46:19.937Z,6.28
2023-05-19T18:48:49.316Z,5.72
2023-05-19T18:51:16.695Z,4.50
2023-05-19T18:53:43.544Z,3.75
2023-05-19T18:56:13.686Z,4.10
2023-05-19T18:58:40.656Z,4.85
2023-05-19T19:01:10.642Z,5.15
2023-05-19T19:03:37.817Z,5.43
2023-05-19T19:06:04.737Z,4.95
2023-05-19T19:08:34.325Z,5.33
2023-05-19T19:11:03.150Z,5.10
2023-05-19T19:13:30.106Z,4.90
2023-05-19T19:15:59.047Z,4.72
2023-05-19T19:18:26.186Z,4.50
2023-05-19T19:20:53.457Z,5.83
2023-05-19T19:23:20.488Z,5.13
2023-05-19T19:25:47.506Z,4.43
2023-05-19T19:28:14.598Z,4.28
2023-05-19T19:30:41.464Z,6.28
2023-05-19T19:33:08.930Z,7.90
2023-05-19T19:35:36.081Z,5.32
2023-05-19T19:38:03.051Z,4.50
2023-05-19T19:40:33.209Z,5.72
2023-05-19T19:43:00.432Z,5.95
2023-05-19T19:45:32.064Z,6.83
2023-05-19T19:48:02.237Z,4.53
2023-05-19T19:50:29.225Z,4.50
2023-05-19T19:52:56.470Z,4.72
2023-05-19T19:55:23.441Z,4.80
2023-05-19T19:57:53.296Z,4.63
2023-05-19T20:00:20.355Z,4.90
2023-05-19T20:03:03.610Z,4.28
2023-05-19T20:05:31.992Z,5.05
2023-05-19T20:08:01.058Z,4.35
2023-05-19T20:10:28.132Z,4.53
2023-05-19T20:12:55.199Z,3.97
2023-05-19T20:15:22.144Z,4.80
2023-05-19T20:17:49.148Z,4.32
2023-05-19T20:20:16.506Z,4.63
2023-05-19T20:22:43.349Z,5.30
2023-05-19T20:25:10.194Z,3.78
2023-05-19T20:27:37.134Z,4.40
2023-05-19T20:30:04.717Z,4.25
2023-05-19T20:32:31.778Z,3.88
2023-05-19T20:34:58.915Z,4.50
2023-05-19T20:37:25.861Z,4.78
2023-05-19T20:39:52.887Z,5.53
2023-05-19T20:42:23.013Z,4.60
2023-05-19T20:44:49.966Z,4.80
2023-05-19T20:47:17.014Z,4.87
2023-05-19T20:49:44.283Z,4.93
2023-05-19T20:52:11.228Z,4.60
2023-05-19T20:54:38.160Z,5.20
2023-05-19T20:57:05.296Z,5.20
2023-05-19T20:59:39.029Z,4.67
2023-05-19T21:02:06.212Z,4.40
2023-05-19T21:04:33.455Z,4.82
2023-05-19T21:07:00.899Z,5.25
2023-05-19T21:09:27.936Z,5.45
2023-05-19T21:11:54.930Z,6.53
2023-05-19T21:14:22.632Z,4.55
2023-05-19T21:16:50.342Z,5.05
2023-05-19T21:19:17.360Z,4.60
2023-05-19T21:21:44.271Z,4.75
2023-05-19T21:24:11.624Z,5.43
2023-05-19T21:26:39.377Z,5.30
2023-05-19T21:29:06.235Z,5.47
2023-05-19T21:31:33.592Z,4.75
2023-05-19T21:34:00.450Z,5.22
2023-05-19T21:36:27.631Z,6.20
2023-05-19T21:38:54.643Z,6.65
2023-05-19T21:41:21.555Z,4.30
2023-05-19T21:43:48.533Z,5.80
2023-05-19T21:46:15.522Z,6.47
2023-05-19T21:48:42.484Z,5.60
2023-05-19T21:51:09.337Z,5.88
2023-05-19T21:53:36.644Z,5.28
2023-05-19T21:56:03.773Z,6.38
2023-05-19T21:58:30.752Z,5.55
2023-05-19T22:00:59.692Z,5.27
2023-05-19T22:03:29.103Z,6.40
2023-05-19T22:05:58.496Z,5.20
2023-05-19T22:08:25.526Z,8.00
2023-05-19T22:10:53.260Z,5.95
2023-05-19T22:13:21.199Z,7.43
2023-05-19T22:15:48.621Z,5.85
2023-05-19T22:18:18.408Z,6.53
2023-05-19T22:20:47.720Z,4.93
2023-05-19T22:23:14.774Z,5.18
2023-05-19T22:25:41.618Z,5.33
2023-05-19T22:28:08.820Z,5.53
2023-05-19T22:30:37.148Z,5.47
2023-05-19T22:33:05.597Z,5.60
2023-05-19T22:35:32.492Z,6.85
2023-05-19T22:37:59.442Z,8.20
2023-05-19T22:40:26.301Z,5.60
2023-05-19T22:42:53.166Z,5.78
2023-05-19T22:45:20.090Z,5.13
2023-05-19T22:47:46.921Z,6.28
2023-05-19T22:50:13.886Z,6.07
2023-05-19T22:52:40.749Z,6.82
2023-05-19T22:55:08.097Z,5.93
2023-05-19T22:57:35.031Z,5.47
2023-05-19T23:00:01.976Z,5.72
2023-05-19T23:02:28.853Z,5.87
2023-05-19T23:04:55.746Z,5.72
2023-05-19T23:07:22.675Z,5.63
2023-05-19T23:09:49.728Z,5.70
2023-05-19T23:12:16.650Z,5.95
2023-05-19T23:14:43.508Z,5.60
2023-05-19T23:17:10.408Z,5.47
2023-05-19T23:19:37.380Z,6.78
2023-05-19T23:22:04.378Z,7.63
2023-05-19T23:24:31.232Z,5.72
2023-05-19T23:26:58.199Z,5.80
2023-05-19T23:29:25.263Z,5.88
2023-05-19T23:31:52.120Z,7.32
2023-05-19T23:34:19.098Z,5.75
2023-05-19T23:36:46.111Z,5.55
2023-05-19T23:39:12.963Z,5.80
2023-05-19T23:41:39.903Z,6.53
2023-05-19T23:44:08.370Z,6.47
2023-05-19T23:46:35.297Z,6.47
2023-05-19T23:49:02.270Z,7.15
2023-05-19T23:51:29.176Z,6.27
2023-05-19T23:53:56.527Z,6.13
2023-05-19T23:56:23.438Z,6.20
2023-05-19T23:58:50.227Z,6.15
